createdAt,value
2023-01-18T00:01:19.184Z,2.30
2023-01-18T00:03:49.002Z,2.73
2023-01-18T00:06:17.998Z,2.70
2023-01-18T00:08:46.327Z,2.53
2023-01-18T00:11:18.482Z,2.90
2023-01-18T00:13:47.876Z,3.10
2023-01-18T00:16:18.733Z,2.80
2023-01-18T00:18:53.629Z,2.30
2023-01-18T00:21:22.186Z,2.60
2023-01-18T00:23:50.441Z,2.90
2023-01-18T00:26:18.762Z,3.10
2023-01-18T00:28:47.075Z,2.70
2023-01-18T00:31:17.965Z,2.70
2023-01-18T00:33:47.259Z,3.10
2023-01-18T00:36:18.760Z,3.07
2023-01-18T00:38:52.299Z,2.87
2023-01-18T00:41:21.250Z,3.50
2023-01-18T00:43:49.115Z,3.10
2023-01-18T00:46:20.136Z,3.23
2023-01-18T00:48:48.505Z,3.53
2023-01-18T00:51:22.729Z,2.50
2023-01-18T00:53:51.741Z,3.00
2023-01-18T00:56:23.488Z,2.60
2023-01-18T00:58:51.910Z,3.40
2023-01-18T01:01:20.479Z,3.20
2023-01-18T01:04:06.134Z,3.50
2023-01-18T01:06:46.278Z,3.43
2023-01-18T01:09:17.932Z,3.37
2023-01-18T01:12:00.889Z,3.20
2023-01-18T01:14:46.431Z,3.03
2023-01-18T01:17:32.123Z,3.43
2023-01-18T01:20:17.706Z,3.33
2023-01-18T01:23:05.025Z,3.00
2023-01-18T01:25:50.822Z,3.87
2023-01-18T01:28:19.134Z,3.67
2023-01-18T01:30:47.483Z,3.57
2023-01-18T01:33:15.774Z,3.50
2023-01-18T01:35:44.296Z,3.87
2023-01-18T01:38:13.920Z,4.43
2023-01-18T01:40:42.208Z,3.63
2023-01-18T01:43:14.575Z,4.40
2023-01-18T01:45:43.205Z,3.87
2023-01-18T01:48:12.240Z,3.57
2023-01-18T01:50:41.804Z,3.77
2023-01-18T01:53:13.547Z,3.27
2023-01-18T01:55:42.515Z,3.70
2023-01-18T01:58:15.921Z,3.40
2023-01-18T02:00:45.099Z,3.50
2023-01-18T02:03:19.158Z,3.60
2023-01-18T02:05:50.357Z,3.73
2023-01-18T02:08:23.316Z,3.27
2023-01-18T02:10:52.255Z,3.87
2023-01-18T02:13:22.544Z,4.20
2023-01-18T02:16:02.292Z,3.40
2023-01-18T02:18:35.273Z,2.97
2023-01-18T02:21:17.195Z,3.33
2023-01-18T02:24:20.338Z,3.37
2023-01-18T02:27:02.562Z,3.00
2023-01-18T02:30:01.005Z,3.30
2023-01-18T02:32:44.102Z,3.20
2023-01-18T02:35:16.933Z,3.43
2023-01-18T02:37:57.617Z,3.57
2023-01-18T02:40:32.364Z,3.50
2023-01-18T02:43:20.524Z,3.40
2023-01-18T02:46:09.007Z,3.30
2023-01-18T02:48:40.549Z,3.00
2023-01-18T02:51:09.334Z,3.33
2023-01-18T02:53:42.268Z,3.70
2023-01-18T02:56:15.649Z,3.80
2023-01-18T02:58:48.338Z,3.33
2023-01-18T03:01:26.783Z,4.03
2023-01-18T03:03:59.693Z,3.20
2023-01-18T03:06:30.694Z,3.87
2023-01-18T03:09:01.403Z,3.80
2023-01-18T03:11:41.444Z,3.53
2023-01-18T03:14:21.739Z,3.90
2023-01-18T03:17:01.551Z,4.00
2023-01-18T03:20:03.447Z,3.37
2023-01-18T03:22:54.454Z,3.87
2023-01-18T03:25:28.207Z,3.57
2023-01-18T03:28:16.865Z,3.83
2023-01-18T03:31:04.413Z,3.80
2023-01-18T03:33:45.202Z,3.27
2023-01-18T03:36:20.740Z,3.23
2023-01-18T03:38:54.680Z,3.30
2023-01-18T03:41:26.847Z,3.90
2023-01-18T03:43:59.566Z,3.97
2023-01-18T03:46:31.683Z,3.53
2023-01-18T03:49:01.920Z,3.60
2023-01-18T03:51:47.286Z,3.53
2023-01-18T03:54:21.767Z,3.80
2023-01-18T03:56:55.004Z,3.27
2023-01-18T03:59:23.817Z,3.50
2023-01-18T04:01:52.173Z,3.20
2023-01-18T04:04:21.924Z,3.50
2023-01-18T04:06:50.322Z,3.10
2023-01-18T04:09:18.576Z,3.70
2023-01-18T04:11:46.880Z,3.67
2023-01-18T04:14:15.377Z,3.53
2023-01-18T04:16:43.664Z,3.30
2023-01-18T04:19:12.070Z,3.50
2023-01-18T04:21:41.713Z,3.33
2023-01-18T04:24:11.311Z,3.90
2023-01-18T04:26:39.840Z,3.40
2023-01-18T04:29:09.099Z,4.00
2023-01-18T04:31:37.505Z,3.60
2023-01-18T04:34:05.889Z,3.13
2023-01-18T04:36:34.188Z,3.20
2023-01-18T04:39:03.896Z,3.60
2023-01-18T04:41:32.260Z,4.50
2023-01-18T04:44:00.641Z,4.40
2023-01-18T04:46:29.011Z,3.80
2023-01-18T04:48:57.330Z,3.73
2023-01-18T04:51:27.284Z,3.90
2023-01-18T04:53:55.512Z,3.60
2023-01-18T04:56:25.312Z,4.20
2023-01-18T04:58:54.780Z,5.03
2023-01-18T05:01:24.078Z,5.80
2023-01-18T05:03:54.283Z,4.90
2023-01-18T05:06:24.132Z,5.80
2023-01-18T05:08:53.125Z,5.53
2023-01-18T05:11:23.210Z,5.93
2023-01-18T05:13:52.948Z,5.07
2023-01-18T05:16:23.740Z,5.13
2023-01-18T05:18:52.310Z,5.20
2023-01-18T05:21:21.157Z,5.47
2023-01-18T05:23:49.475Z,5.00
2023-01-18T05:26:21.070Z,4.60
2023-01-18T05:28:50.331Z,5.30
2023-01-18T05:31:21.340Z,5.17
2023-01-18T05:33:49.912Z,5.00
2023-01-18T05:36:18.532Z,5.10
2023-01-18T05:38:48.141Z,4.57
2023-01-18T05:41:16.450Z,4.90
2023-01-18T05:43:44.720Z,4.93
2023-01-18T05:46:12.982Z,5.10
2023-01-18T05:48:42.566Z,4.80
2023-01-18T05:51:12.347Z,4.80
2023-01-18T05:53:41.202Z,5.20
2023-01-18T05:56:10.865Z,4.50
2023-01-18T05:58:39.435Z,4.47
2023-01-18T06:01:08.795Z,4.63
2023-01-18T06:03:37.343Z,5.03
2023-01-18T06:06:08.852Z,4.00
2023-01-18T06:08:37.264Z,4.23
2023-01-18T06:11:06.505Z,4.90
2023-01-18T06:13:34.754Z,5.10
2023-01-18T06:16:03.446Z,5.10
2023-01-18T06:18:33.841Z,4.33
2023-01-18T06:21:07.771Z,4.67
2023-01-18T06:23:36.304Z,4.23
2023-01-18T06:26:05.130Z,4.20
2023-01-18T06:28:33.458Z,3.80
2023-01-18T06:31:04.801Z,4.13
2023-01-18T06:33:33.153Z,3.90
2023-01-18T06:36:01.919Z,5.23
2023-01-18T06:38:31.715Z,5.37
2023-01-18T06:41:00.232Z,4.73
2023-01-18T06:43:29.315Z,5.63
2023-01-18T06:45:58.503Z,5.50
2023-01-18T06:48:28.644Z,5.73
2023-01-18T06:50:58.869Z,5.90
2023-01-18T06:53:27.870Z,5.40
2023-01-18T06:55:59.877Z,5.10
2023-01-18T06:58:31.013Z,5.80
2023-01-18T07:01:01.184Z,6.33
2023-01-18T07:03:30.901Z,6.53
2023-01-18T07:06:01.903Z,6.57
2023-01-18T07:08:32.083Z,5.87
2023-01-18T07:11:06.855Z,6.53
2023-01-18T07:13:35.581Z,5.83
2023-01-18T07:16:03.891Z,5.97
2023-01-18T07:18:32.425Z,5.60
2023-01-18T07:21:03.422Z,4.80
2023-01-18T07:23:32.398Z,4.63
2023-01-18T07:26:06.882Z,5.73
2023-01-18T07:28:36.910Z,6.67
2023-01-18T07:31:08.095Z,6.23
2023-01-18T07:33:36.969Z,9.20
2023-01-18T07:36:09.562Z,11.67
2023-01-18T07:38:38.730Z,7.37
2023-01-18T07:41:14.247Z,7.23
2023-01-18T07:43:44.731Z,6.87
2023-01-18T07:46:15.877Z,13.90
2023-01-18T07:48:44.603Z,11.33
2023-01-18T07:51:13.284Z,16.33
2023-01-18T07:53:42.404Z,17.43
2023-01-18T07:56:15.666Z,21.93
2023-01-18T07:58:44.657Z,26.80
2023-01-18T08:01:16.362Z,22.70
2023-01-18T08:03:47.162Z,23.37
2023-01-18T08:06:17.781Z,20.73
2023-01-18T08:08:46.469Z,11.43
2023-01-18T08:11:16.114Z,9.83
2023-01-18T08:13:44.385Z,10.93
2023-01-18T08:16:13.649Z,10.50
2023-01-18T08:18:42.660Z,8.63
2023-01-18T08:21:12.394Z,6.73
2023-01-18T08:23:41.075Z,6.37
2023-01-18T08:26:12.842Z,7.40
2023-01-18T08:28:44.750Z,7.10
2023-01-18T08:31:15.882Z,7.07
2023-01-18T08:33:47.625Z,7.77
2023-01-18T08:36:18.069Z,6.83
2023-01-18T08:38:50.288Z,7.00
2023-01-18T08:41:18.844Z,6.97
2023-01-18T08:43:50.863Z,7.70
2023-01-18T08:46:19.533Z,7.23
2023-01-18T08:48:51.362Z,8.53
2023-01-18T08:51:20.486Z,9.20
2023-01-18T08:53:49.600Z,14.47
2023-01-18T08:56:17.845Z,11.33
2023-01-18T08:58:48.057Z,9.53
2023-01-18T09:01:16.442Z,9.43
2023-01-18T09:03:45.067Z,9.50
2023-01-18T09:06:13.340Z,9.53
2023-01-18T09:08:41.652Z,9.00
2023-01-18T09:11:11.878Z,6.57
2023-01-18T09:13:58.585Z,7.07
2023-01-18T09:16:29.972Z,10.27
2023-01-18T09:18:58.643Z,8.67
2023-01-18T09:21:29.039Z,8.83
2023-01-18T09:23:57.924Z,7.50
2023-01-18T09:26:27.744Z,5.83
2023-01-18T09:28:56.359Z,6.70
2023-01-18T09:31:30.740Z,6.00
2023-01-18T09:34:17.486Z,5.27
2023-01-18T09:36:46.829Z,5.63
2023-01-18T09:39:15.102Z,5.17
2023-01-18T09:41:47.018Z,6.60
2023-01-18T09:44:23.381Z,4.33
2023-01-18T09:46:56.414Z,4.17
2023-01-18T09:49:31.180Z,3.80
2023-01-18T09:52:13.402Z,4.17
2023-01-18T09:54:49.468Z,3.53
2023-01-18T09:57:38.507Z,3.50
2023-01-18T10:00:20.972Z,3.90
2023-01-18T10:02:56.144Z,3.43
2023-01-18T10:05:29.583Z,3.40
2023-01-18T10:08:04.997Z,3.37
2023-01-18T10:10:39.669Z,3.63
2023-01-18T10:13:37.965Z,3.60
2023-01-18T10:16:14.926Z,3.67
2023-01-18T10:18:48.135Z,3.43
2023-01-18T10:21:27.096Z,3.87
2023-01-18T10:24:30.659Z,3.03
2023-01-18T10:27:16.842Z,3.03
2023-01-18T10:30:02.754Z,2.73
2023-01-18T10:32:33.499Z,3.00
2023-01-18T10:35:09.052Z,2.70
2023-01-18T10:37:45.311Z,2.57
2023-01-18T10:40:16.016Z,2.17
2023-01-18T10:42:48.315Z,2.77
2023-01-18T10:45:21.633Z,2.67
2023-01-18T10:47:50.239Z,2.33
2023-01-18T10:50:22.945Z,2.43
2023-01-18T10:52:51.405Z,2.40
2023-01-18T10:55:21.306Z,2.33
2023-01-18T10:57:53.498Z,2.07
2023-01-18T11:00:26.501Z,2.40
2023-01-18T11:02:57.427Z,2.00
2023-01-18T11:05:31.733Z,2.53
2023-01-18T11:08:15.298Z,2.53
2023-01-18T11:10:44.536Z,2.60
2023-01-18T11:13:28.685Z,3.07
2023-01-18T11:16:17.664Z,3.10
2023-01-18T11:19:01.970Z,3.10
2023-01-18T11:21:45.754Z,2.63
2023-01-18T11:24:18.451Z,2.03
2023-01-18T11:26:59.028Z,2.40
2023-01-18T11:29:30.890Z,2.00
2023-01-18T11:32:05.417Z,4.27
2023-01-18T11:34:37.538Z,4.70
2023-01-18T11:37:31.583Z,3.20
2023-01-18T11:40:00.442Z,4.80
2023-01-18T11:42:31.618Z,3.97
2023-01-18T11:45:16.418Z,4.13
2023-01-18T11:47:58.772Z,5.57
2023-01-18T11:50:35.844Z,4.60
2023-01-18T11:53:19.596Z,3.50
2023-01-18T11:55:56.318Z,2.77
2023-01-18T11:58:28.413Z,2.87
2023-01-18T12:01:23.832Z,3.10
2023-01-18T12:04:00.392Z,2.73
2023-01-18T12:06:41.478Z,2.90
2023-01-18T12:09:33.525Z,3.90
2023-01-18T12:12:27.283Z,2.43
2023-01-18T12:15:17.616Z,3.30
2023-01-18T12:18:12.824Z,5.90
2023-01-18T12:20:55.838Z,3.43
2023-01-18T12:24:00.290Z,3.00
2023-01-18T12:26:49.438Z,2.73
2023-01-18T12:30:03.551Z,2.60
2023-01-18T12:33:21.457Z,4.80
2023-01-18T12:36:12.662Z,2.80
2023-01-18T12:38:48.473Z,3.40
2023-01-18T12:41:53.112Z,3.27
2023-01-18T12:44:52.853Z,2.80
2023-01-18T12:47:38.128Z,2.90
2023-01-18T12:50:25.178Z,3.10
2023-01-18T12:52:57.603Z,2.77
2023-01-18T12:55:31.652Z,2.90
2023-01-18T12:58:03.677Z,3.13
2023-01-18T13:00:37.759Z,2.60
2023-01-18T13:03:12.777Z,3.27
2023-01-18T13:05:52.362Z,3.30
2023-01-18T13:08:35.917Z,3.30
2023-01-18T13:11:10.650Z,3.73
2023-01-18T13:13:45.039Z,3.47
2023-01-18T13:16:32.408Z,3.63
2023-01-18T13:19:05.570Z,3.60
2023-01-18T13:22:00.599Z,4.23
2023-01-18T13:24:48.929Z,4.47
2023-01-18T13:27:18.775Z,5.77
2023-01-18T13:29:48.571Z,6.87
2023-01-18T13:32:30.756Z,7.10
2023-01-18T13:35:19.114Z,6.60
2023-01-18T13:37:52.593Z,6.70
2023-01-18T13:40:39.180Z,6.33
2023-01-18T13:43:31.147Z,7.20
2023-01-18T13:46:18.021Z,9.70
2023-01-18T13:48:53.321Z,7.73
2023-01-18T13:51:53.438Z,8.03
2023-01-18T13:54:58.933Z,6.47
2023-01-18T13:57:27.198Z,6.50
2023-01-18T13:59:55.683Z,5.33
2023-01-18T14:02:32.052Z,5.17
2023-01-18T14:05:08.275Z,5.70
2023-01-18T14:07:45.272Z,4.87
2023-01-18T14:10:30.418Z,5.27
2023-01-18T14:13:01.284Z,4.43
2023-01-18T14:15:46.602Z,5.00
2023-01-18T14:18:23.409Z,4.40
2023-01-18T14:21:19.128Z,4.77
2023-01-18T14:24:14.582Z,5.00
2023-01-18T14:26:44.817Z,4.63
2023-01-18T14:29:18.625Z,4.30
2023-01-18T14:31:51.543Z,4.60
2023-01-18T14:34:38.728Z,4.33
2023-01-18T14:37:27.129Z,5.13
2023-01-18T14:40:27.458Z,3.87
2023-01-18T14:42:58.116Z,4.07
2023-01-18T14:45:30.689Z,5.40
2023-01-18T14:48:01.871Z,7.30
2023-01-18T14:50:38.969Z,4.53
2023-01-18T14:53:12.214Z,3.60
2023-01-18T14:55:40.559Z,3.93
2023-01-18T14:58:15.822Z,3.50
2023-01-18T15:00:47.479Z,3.57
2023-01-18T15:03:24.031Z,3.67
2023-01-18T15:06:02.842Z,5.23
2023-01-18T15:08:34.575Z,4.17
2023-01-18T15:11:05.071Z,4.17
2023-01-18T15:13:47.360Z,4.27
2023-01-18T15:16:19.986Z,4.13
2023-01-18T15:18:50.033Z,4.53
2023-01-18T15:21:23.545Z,5.23
2023-01-18T15:23:54.331Z,3.47
2023-01-18T15:26:36.823Z,3.80
2023-01-18T15:29:26.308Z,3.23
2023-01-18T15:31:57.216Z,3.30
2023-01-18T15:34:31.313Z,3.90
2023-01-18T15:37:03.182Z,5.77
2023-01-18T15:39:32.968Z,5.60
2023-01-18T15:42:07.206Z,3.97
2023-01-18T15:44:42.503Z,4.07
2023-01-18T15:47:23.691Z,3.63
2023-01-18T15:49:54.408Z,3.33
2023-01-18T15:52:40.121Z,3.70
2023-01-18T15:55:20.010Z,3.43
2023-01-18T15:58:01.413Z,4.00
2023-01-18T16:00:34.773Z,3.60
2023-01-18T16:03:04.544Z,4.00
2023-01-18T16:05:33.516Z,4.70
2023-01-18T16:08:19.281Z,4.33
2023-01-18T16:10:53.959Z,4.10
2023-01-18T16:13:33.588Z,4.33
2023-01-18T16:16:20.697Z,3.40
2023-01-18T16:18:59.483Z,5.07
2023-01-18T16:21:40.463Z,6.50
2023-01-18T16:24:19.133Z,5.63
2023-01-18T16:26:48.507Z,4.67
2023-01-18T16:29:17.014Z,4.60
2023-01-18T16:31:45.643Z,4.43
2023-01-18T16:34:24.680Z,4.77
2023-01-18T16:36:54.747Z,4.50
2023-01-18T16:39:24.558Z,5.90
2023-01-18T16:41:57.870Z,9.20
2023-01-18T16:44:27.880Z,6.10
2023-01-18T16:46:56.157Z,5.43
2023-01-18T16:49:24.435Z,4.53
2023-01-18T16:51:52.727Z,8.67
2023-01-18T16:54:21.173Z,5.80
2023-01-18T16:56:50.891Z,5.53
2023-01-18T16:59:22.787Z,4.93
2023-01-18T17:01:51.673Z,5.60
2023-01-18T17:04:20.126Z,6.77
2023-01-18T17:06:48.458Z,8.77
2023-01-18T17:09:22.743Z,6.60
2023-01-18T17:11:53.113Z,6.27
2023-01-18T17:14:22.427Z,6.57
2023-01-18T17:16:51.002Z,5.93
2023-01-18T17:19:22.091Z,6.00
2023-01-18T17:21:51.722Z,6.20
2023-01-18T17:24:22.129Z,5.50
2023-01-18T17:26:52.054Z,5.07
2023-01-18T17:29:22.032Z,4.93
2023-01-18T17:31:53.111Z,5.90
2023-01-18T17:34:28.047Z,5.30
2023-01-18T17:36:59.482Z,5.90
2023-01-18T17:39:42.600Z,5.30
2023-01-18T17:42:26.034Z,5.03
2023-01-18T17:45:03.829Z,5.33
2023-01-18T17:47:32.956Z,5.27
2023-01-18T17:50:08.547Z,5.30
2023-01-18T17:52:37.041Z,5.37
2023-01-18T17:55:07.135Z,5.70
2023-01-18T17:57:37.095Z,5.20
2023-01-18T18:00:08.298Z,5.43
2023-01-18T18:02:36.887Z,5.63
2023-01-18T18:05:06.263Z,5.80
2023-01-18T18:07:34.957Z,5.53
2023-01-18T18:10:03.858Z,5.57
2023-01-18T18:12:34.425Z,5.73
2023-01-18T18:15:05.676Z,6.20
2023-01-18T18:17:35.788Z,6.17
2023-01-18T18:20:04.613Z,6.07
2023-01-18T18:22:33.889Z,6.23
2023-01-18T18:25:02.343Z,8.30
2023-01-18T18:27:44.378Z,7.47
2023-01-18T18:30:15.694Z,6.93
2023-01-18T18:32:44.107Z,7.93
2023-01-18T18:35:24.524Z,7.43
2023-01-18T18:37:55.751Z,7.73
2023-01-18T18:40:25.135Z,6.73
2023-01-18T18:43:01.791Z,5.30
2023-01-18T18:45:33.334Z,6.40
2023-01-18T18:48:02.286Z,5.97
2023-01-18T18:50:32.029Z,6.43
2023-01-18T18:53:00.909Z,6.57
2023-01-18T18:55:29.637Z,6.60
2023-01-18T18:57:58.086Z,6.30
2023-01-18T19:00:27.463Z,6.73
2023-01-18T19:03:01.676Z,6.27
2023-01-18T19:05:32.962Z,6.90
2023-01-18T19:08:02.007Z,6.57
2023-01-18T19:10:30.534Z,6.73
2023-01-18T19:12:59.957Z,6.73
2023-01-18T19:15:29.220Z,7.10
2023-01-18T19:17:59.117Z,6.73
2023-01-18T19:20:27.654Z,6.93
2023-01-18T19:22:56.029Z,7.17
2023-01-18T19:25:24.584Z,6.47
2023-01-18T19:27:52.952Z,7.23
2023-01-18T19:30:21.786Z,6.53
2023-01-18T19:32:51.703Z,6.57
2023-01-18T19:35:22.688Z,6.63
2023-01-18T19:37:51.088Z,6.33
2023-01-18T19:40:20.479Z,6.17
2023-01-18T19:42:56.027Z,6.20
2023-01-18T19:45:28.821Z,6.30
2023-01-18T19:47:59.698Z,6.13
2023-01-18T19:50:31.189Z,8.50
2023-01-18T19:53:00.149Z,7.67
2023-01-18T19:55:28.950Z,7.17
2023-01-18T19:58:00.383Z,6.80
2023-01-18T20:00:30.500Z,7.77
2023-01-18T20:02:59.973Z,8.00
2023-01-18T20:05:30.250Z,7.20
2023-01-18T20:07:58.656Z,8.37
2023-01-18T20:10:27.297Z,6.43
2023-01-18T20:12:56.276Z,6.30
2023-01-18T20:15:24.626Z,7.50
2023-01-18T20:17:53.000Z,7.97
2023-01-18T20:20:31.736Z,8.83
2023-01-18T20:23:04.456Z,7.40
2023-01-18T20:25:33.645Z,7.93
2023-01-18T20:28:02.382Z,8.13
2023-01-18T20:30:30.892Z,8.57
2023-01-18T20:32:59.626Z,6.90
2023-01-18T20:35:28.628Z,7.33
2023-01-18T20:37:57.231Z,7.20
2023-01-18T20:40:27.261Z,6.63
2023-01-18T20:42:55.640Z,7.37
2023-01-18T20:45:24.082Z,6.83
2023-01-18T20:47:52.405Z,8.20
2023-01-18T20:50:23.206Z,7.30
2023-01-18T20:52:52.148Z,8.70
2023-01-18T20:55:21.044Z,7.90
2023-01-18T20:57:52.706Z,7.63
2023-01-18T21:00:22.089Z,7.10
2023-01-18T21:02:50.781Z,7.00
2023-01-18T21:05:19.368Z,7.27
2023-01-18T21:07:47.694Z,7.30
2023-01-18T21:10:16.044Z,7.03
2023-01-18T21:12:44.403Z,7.47
2023-01-18T21:15:14.489Z,8.07
2023-01-18T21:17:42.815Z,7.77
2023-01-18T21:20:12.897Z,7.53
2023-01-18T21:22:41.190Z,7.63
2023-01-18T21:25:10.459Z,8.50
2023-01-18T21:27:43.249Z,7.10
2023-01-18T21:30:16.671Z,8.07
2023-01-18T21:32:45.423Z,7.63
2023-01-18T21:35:14.330Z,8.13
2023-01-18T21:37:43.273Z,8.20
2023-01-18T21:40:13.131Z,7.60
2023-01-18T21:42:58.909Z,7.63
2023-01-18T21:45:45.900Z,8.30
2023-01-18T21:48:14.308Z,7.40
2023-01-18T21:51:05.454Z,8.60
2023-01-18T21:53:51.230Z,9.50
2023-01-18T21:56:19.671Z,9.40
2023-01-18T21:58:54.092Z,9.40
2023-01-18T22:01:27.076Z,8.93
2023-01-18T22:04:13.847Z,9.73
2023-01-18T22:06:42.253Z,8.90
2023-01-18T22:09:10.539Z,8.20
2023-01-18T22:11:38.955Z,8.63
2023-01-18T22:14:09.273Z,8.57
2023-01-18T22:16:39.404Z,8.60
2023-01-18T22:19:08.236Z,8.53
2023-01-18T22:21:36.561Z,8.70
2023-01-18T22:24:05.539Z,8.43
2023-01-18T22:26:36.260Z,8.80
2023-01-18T22:29:04.901Z,8.73
2023-01-18T22:31:33.495Z,8.87
2023-01-18T22:34:05.418Z,8.70
2023-01-18T22:36:34.282Z,8.57
2023-01-18T22:39:02.665Z,8.97
2023-01-18T22:41:31.344Z,8.83
2023-01-18T22:43:59.729Z,9.13
2023-01-18T22:46:28.857Z,8.47
2023-01-18T22:48:57.188Z,8.67
2023-01-18T22:51:27.087Z,8.40
2023-01-18T22:53:56.412Z,8.47
2023-01-18T22:56:26.931Z,8.23
2023-01-18T22:58:55.357Z,8.10
2023-01-18T23:01:26.042Z,8.63
2023-01-18T23:03:57.297Z,8.60
2023-01-18T23:06:28.999Z,8.50
2023-01-18T23:08:57.884Z,8.40
2023-01-18T23:11:28.964Z,8.37
2023-01-18T23:14:16.918Z,8.97
2023-01-18T23:17:02.933Z,8.80
2023-01-18T23:19:31.652Z,8.50
2023-01-18T23:22:06.761Z,7.67
2023-01-18T23:24:36.067Z,8.33
2023-01-18T23:27:04.826Z,8.53
2023-01-18T23:29:33.260Z,8.13
2023-01-18T23:32:01.664Z,8.00
2023-01-18T23:34:30.068Z,7.97
2023-01-18T23:36:58.395Z,8.43
2023-01-18T23:39:45.576Z,7.73
2023-01-18T23:42:31.232Z,8.90
2023-01-18T23:45:16.665Z,7.80
2023-01-18T23:48:02.656Z,7.33
2023-01-18T23:50:48.627Z,8.90
2023-01-18T23:53:34.420Z,8.47
2023-01-18T23:56:04.138Z,9.70
2023-01-18T23:58:32.361Z,7.63
